createdAt,value
2022-11-13T00:00:19.000Z,4.01
2022-11-13T00:01:19.000Z,4.03
2022-11-13T00:02:19.000Z,4.03
2022-11-13T00:03:19.000Z,3.98
2022-11-13T00:04:19.000Z,3.94
2022-11-13T00:05:19.000Z,3.89
2022-11-13T00:06:19.000Z,3.85
2022-11-13T00:07:19.000Z,3.82
2022-11-13T00:08:19.000Z,3.82
2022-11-13T00:09:19.000Z,3.83
2022-11-13T00:10:19.000Z,3.88
2022-11-13T00:11:19.000Z,3.88
2022-11-13T00:12:19.000Z,3.86
2022-11-13T00:13:19.000Z,3.85
2022-11-13T00:14:19.000Z,3.78
2022-11-13T00:15:19.000Z,3.76
2022-11-13T00:16:19.000Z,3.75
2022-11-13T00:17:19.000Z,3.68
2022-11-13T00:18:19.000Z,3.72
2022-11-13T00:19:19.000Z,3.68
2022-11-13T00:20:19.000Z,3.68
2022-11-13T00:21:19.000Z,3.70
2022-11-13T00:22:19.000Z,3.71
2022-11-13T00:23:19.000Z,3.71
2022-11-13T00:24:19.000Z,3.70
2022-11-13T00:25:19.000Z,3.72
2022-11-13T00:26:19.000Z,3.61
2022-11-13T00:27:19.000Z,3.61
2022-11-13T00:28:19.000Z,3.58
2022-11-13T00:29:19.000Z,3.57
2022-11-13T00:30:19.000Z,3.52
2022-11-13T00:31:19.000Z,3.44
2022-11-13T00:32:19.000Z,3.43
2022-11-13T00:33:19.000Z,3.39
2022-11-13T00:34:19.000Z,3.36
2022-11-13T00:35:19.000Z,3.34
2022-11-13T00:36:19.000Z,3.28
2022-11-13T00:37:19.000Z,3.31
2022-11-13T00:38:19.000Z,3.27
2022-11-13T00:39:19.000Z,3.27
2022-11-13T00:40:19.000Z,3.27
2022-11-13T00:41:19.000Z,3.27
2022-11-13T00:42:19.000Z,3.27
2022-11-13T00:43:19.000Z,3.27
2022-11-13T00:44:19.000Z,3.25
2022-11-13T00:45:19.000Z,3.27
2022-11-13T00:46:19.000Z,3.34
2022-11-13T00:47:19.000Z,3.40
2022-11-13T00:48:19.000Z,3.42
2022-11-13T00:49:19.000Z,3.46
2022-11-13T00:50:19.000Z,3.50
2022-11-13T00:51:19.000Z,3.57
2022-11-13T00:52:19.000Z,3.58
2022-11-13T00:53:19.000Z,3.54
2022-11-13T00:54:19.000Z,3.57
2022-11-13T00:55:19.000Z,3.53
2022-11-13T00:56:19.000Z,3.54
2022-11-13T00:57:19.000Z,3.54
2022-11-13T00:58:19.000Z,3.50
2022-11-13T00:59:19.000Z,3.49
2022-11-13T01:00:19.000Z,3.40
2022-11-13T01:01:19.000Z,3.31
2022-11-13T01:02:19.000Z,3.18
2022-11-13T01:03:19.000Z,3.05
2022-11-13T01:04:19.000Z,2.91
2022-11-13T01:05:19.000Z,2.81
2022-11-13T01:06:19.000Z,2.79
2022-11-13T01:07:19.000Z,2.69
2022-11-13T01:08:19.000Z,2.64
2022-11-13T01:09:18.000Z,2.58
2022-11-13T01:10:18.000Z,2.53
2022-11-13T01:11:18.000Z,2.48
2022-11-13T01:12:18.000Z,2.41
2022-11-13T01:13:18.000Z,2.40
2022-11-13T01:14:18.000Z,2.37
2022-11-13T01:15:18.000Z,2.34
2022-11-13T01:16:18.000Z,2.35
2022-11-13T01:17:18.000Z,2.31
2022-11-13T01:18:18.000Z,2.34
2022-11-13T01:19:18.000Z,2.34
2022-11-13T01:20:18.000Z,2.31
2022-11-13T01:21:18.000Z,2.27
2022-11-13T01:22:18.000Z,2.22
2022-11-13T01:23:18.000Z,2.20
2022-11-13T01:24:18.000Z,2.19
2022-11-13T01:25:18.000Z,2.17
2022-11-13T01:26:18.000Z,2.15
2022-11-13T01:27:18.000Z,2.13
2022-11-13T01:28:18.000Z,2.09
2022-11-13T01:29:18.000Z,2.08
2022-11-13T01:30:18.000Z,2.06
2022-11-13T01:31:18.000Z,2.08
2022-11-13T01:32:18.000Z,2.08
2022-11-13T01:33:18.000Z,2.02
2022-11-13T01:34:18.000Z,2.04
2022-11-13T01:35:18.000Z,2.02
2022-11-13T01:36:18.000Z,2.04
2022-11-13T01:37:18.000Z,2.04
2022-11-13T01:38:18.000Z,2.02
2022-11-13T01:39:18.000Z,2.06
2022-11-13T01:40:18.000Z,2.06
2022-11-13T01:41:18.000Z,2.15
2022-11-13T01:42:18.000Z,2.22
2022-11-13T01:43:19.000Z,2.20
2022-11-13T01:44:19.000Z,2.28
2022-11-13T01:45:19.000Z,2.33
2022-11-13T01:46:19.000Z,2.38
2022-11-13T01:47:19.000Z,2.41
2022-11-13T01:48:19.000Z,2.45
2022-11-13T01:49:19.000Z,2.41
2022-11-13T01:50:19.000Z,2.41
2022-11-13T01:51:19.000Z,2.44
2022-11-13T01:52:19.000Z,2.45
2022-11-13T01:53:19.000Z,2.44
2022-11-13T01:54:19.000Z,2.48
2022-11-13T01:55:19.000Z,2.53
2022-11-13T01:56:19.000Z,2.51
2022-11-13T01:57:19.000Z,2.49
2022-11-13T01:58:19.000Z,2.48
2022-11-13T01:59:19.000Z,2.44
2022-11-13T02:00:19.000Z,2.45
2022-11-13T02:01:19.000Z,2.33
2022-11-13T02:02:19.000Z,2.33
2022-11-13T02:03:19.000Z,2.34
2022-11-13T02:04:19.000Z,2.37
2022-11-13T02:05:19.000Z,2.30
2022-11-13T02:06:19.000Z,2.30
2022-11-13T02:07:19.000Z,2.27
2022-11-13T02:08:19.000Z,2.30
2022-11-13T02:09:19.000Z,2.37
2022-11-13T02:10:19.000Z,2.38
2022-11-13T02:11:19.000Z,2.40
2022-11-13T02:12:19.000Z,2.38
2022-11-13T02:13:19.000Z,2.38
2022-11-13T02:14:19.000Z,2.40
2022-11-13T02:15:19.000Z,2.41
2022-11-13T02:16:19.000Z,2.45
2022-11-13T02:17:19.000Z,2.52
2022-11-13T02:18:19.000Z,2.53
2022-11-13T02:19:19.000Z,2.59
2022-11-13T02:20:19.000Z,2.56
2022-11-13T02:21:19.000Z,2.58
2022-11-13T02:22:19.000Z,2.53
2022-11-13T02:23:19.000Z,2.53
2022-11-13T02:24:19.000Z,2.52
2022-11-13T02:25:19.000Z,2.49
2022-11-13T02:26:19.000Z,2.45
2022-11-13T02:27:19.000Z,2.48
2022-11-13T02:28:19.000Z,2.48
2022-11-13T02:29:19.000Z,2.46
2022-11-13T02:30:19.000Z,2.44
2022-11-13T02:31:19.000Z,2.45
2022-11-13T02:32:19.000Z,2.53
2022-11-13T02:33:19.000Z,2.55
2022-11-13T02:34:19.000Z,2.51
2022-11-13T02:35:19.000Z,2.44
2022-11-13T02:36:19.000Z,2.44
2022-11-13T02:37:19.000Z,2.37
2022-11-13T02:38:19.000Z,2.37
2022-11-13T02:39:19.000Z,2.35
2022-11-13T02:40:19.000Z,2.28
2022-11-13T02:41:19.000Z,2.23
2022-11-13T02:42:19.000Z,2.26
2022-11-13T02:43:19.000Z,2.30
2022-11-13T02:44:19.000Z,2.26
2022-11-13T02:45:19.000Z,2.31
2022-11-13T02:46:19.000Z,2.33
2022-11-13T02:47:19.000Z,2.35
2022-11-13T02:48:19.000Z,2.33
2022-11-13T02:49:19.000Z,2.35
2022-11-13T02:50:19.000Z,2.34
2022-11-13T02:51:19.000Z,2.38
2022-11-13T02:52:19.000Z,2.35
2022-11-13T02:53:19.000Z,2.38
2022-11-13T02:54:19.000Z,2.46
2022-11-13T02:55:19.000Z,2.46
2022-11-13T02:56:19.000Z,2.48
2022-11-13T02:57:19.000Z,2.48
2022-11-13T02:58:19.000Z,2.46
2022-11-13T02:59:19.000Z,2.45
2022-11-13T03:00:19.000Z,2.44
2022-11-13T03:01:19.000Z,2.45
2022-11-13T03:02:19.000Z,2.35
2022-11-13T03:03:19.000Z,2.34
2022-11-13T03:04:19.000Z,2.28
2022-11-13T03:05:19.000Z,2.23
2022-11-13T03:06:19.000Z,2.16
2022-11-13T03:07:19.000Z,2.13
2022-11-13T03:08:19.000Z,2.13
2022-11-13T03:09:19.000Z,2.13
2022-11-13T03:10:19.000Z,2.10
2022-11-13T03:11:19.000Z,2.12
2022-11-13T03:12:19.000Z,2.09
2022-11-13T03:13:19.000Z,2.12
2022-11-13T03:14:19.000Z,2.09
2022-11-13T03:15:19.000Z,2.04
2022-11-13T03:16:19.000Z,2.04
2022-11-13T03:17:19.000Z,2.02
2022-11-13T03:18:19.000Z,2.02
2022-11-13T03:19:19.000Z,2.01
2022-11-13T03:20:19.000Z,1.98
2022-11-13T03:21:19.000Z,1.94
2022-11-13T03:22:19.000Z,1.99
2022-11-13T03:23:19.000Z,1.91
2022-11-13T03:24:19.000Z,1.91
2022-11-13T03:25:19.000Z,1.89
2022-11-13T03:26:19.000Z,1.89
2022-11-13T03:27:19.000Z,1.85
2022-11-13T03:28:19.000Z,1.82
2022-11-13T03:29:19.000Z,1.79
2022-11-13T03:30:19.000Z,1.76
2022-11-13T03:31:19.000Z,1.73
2022-11-13T03:32:19.000Z,1.72
2022-11-13T03:33:19.000Z,1.71
2022-11-13T03:34:19.000Z,1.68
2022-11-13T03:35:19.000Z,1.62
2022-11-13T03:36:19.000Z,1.62
2022-11-13T03:37:19.000Z,1.58
2022-11-13T03:38:19.000Z,1.55
2022-11-13T03:39:19.000Z,1.54
2022-11-13T03:40:19.000Z,1.46
2022-11-13T03:41:19.000Z,1.46
2022-11-13T03:42:19.000Z,1.36
2022-11-13T03:43:19.000Z,1.37
2022-11-13T03:44:19.000Z,1.36
2022-11-13T03:45:19.000Z,1.34
2022-11-13T03:46:19.000Z,1.33
2022-11-13T03:47:19.000Z,1.33
2022-11-13T03:48:19.000Z,1.32
2022-11-13T03:49:19.000Z,1.28
2022-11-13T03:50:19.000Z,1.21
2022-11-13T03:51:19.000Z,1.19
2022-11-13T03:52:19.000Z,1.21
2022-11-13T03:53:19.000Z,1.22
2022-11-13T03:54:19.000Z,1.18
2022-11-13T03:55:19.000Z,1.19
2022-11-13T03:56:19.000Z,1.16
2022-11-13T03:57:19.000Z,1.19
2022-11-13T03:58:19.000Z,1.16
2022-11-13T03:59:19.000Z,1.21
2022-11-13T04:00:19.000Z,1.18
2022-11-13T04:01:19.000Z,1.19
2022-11-13T04:02:19.000Z,1.19
2022-11-13T04:03:19.000Z,1.16
2022-11-13T04:04:19.000Z,1.16
2022-11-13T04:05:19.000Z,1.16
2022-11-13T04:06:19.000Z,1.18
2022-11-13T04:07:19.000Z,1.15
2022-11-13T04:08:19.000Z,1.16
2022-11-13T04:09:19.000Z,1.16
2022-11-13T04:10:19.000Z,1.16
2022-11-13T04:11:19.000Z,1.12
2022-11-13T04:12:19.000Z,1.16
2022-11-13T04:13:19.000Z,1.16
2022-11-13T04:14:19.000Z,1.15
2022-11-13T04:15:19.000Z,1.14
2022-11-13T04:16:19.000Z,1.14
2022-11-13T04:17:19.000Z,1.14
2022-11-13T04:18:19.000Z,1.14
2022-11-13T04:19:19.000Z,1.15
2022-11-13T04:20:19.000Z,1.10
2022-11-13T04:21:19.000Z,1.14
2022-11-13T04:22:19.000Z,1.10
2022-11-13T04:23:19.000Z,1.08
2022-11-13T04:24:19.000Z,1.12
2022-11-13T04:25:19.000Z,1.10
2022-11-13T04:26:19.000Z,1.15
2022-11-13T04:27:19.000Z,1.14
2022-11-13T04:28:19.000Z,1.18
2022-11-13T04:29:19.000Z,1.15
2022-11-13T04:30:19.000Z,1.16
2022-11-13T04:31:19.000Z,1.10
2022-11-13T04:32:19.000Z,1.08
2022-11-13T04:33:19.000Z,1.10
2022-11-13T04:34:19.000Z,1.10
2022-11-13T04:35:19.000Z,1.06
2022-11-13T04:36:19.000Z,1.04
2022-11-13T04:37:19.000Z,1.08
2022-11-13T04:38:19.000Z,1.08
2022-11-13T04:39:19.000Z,1.06
2022-11-13T04:40:19.000Z,1.06
2022-11-13T04:41:19.000Z,1.07
2022-11-13T04:42:19.000Z,1.06
2022-11-13T04:43:19.000Z,1.06
2022-11-13T04:44:20.000Z,1.04
2022-11-13T04:45:20.000Z,1.07
2022-11-13T04:46:20.000Z,1.08
2022-11-13T04:47:20.000Z,1.06
2022-11-13T04:48:20.000Z,1.07
2022-11-13T04:49:20.000Z,1.01
2022-11-13T04:50:20.000Z,1.04
2022-11-13T04:51:20.000Z,1.07
2022-11-13T04:52:20.000Z,1.03
2022-11-13T04:53:20.000Z,1.04
2022-11-13T04:54:20.000Z,1.07
2022-11-13T04:55:20.000Z,1.01
2022-11-13T04:56:20.000Z,1.00
2022-11-13T04:57:20.000Z,1.04
2022-11-13T04:58:20.000Z,1.00
2022-11-13T04:59:20.000Z,1.06
2022-11-13T05:00:20.000Z,1.03
2022-11-13T05:01:20.000Z,1.01
2022-11-13T05:02:20.000Z,1.01
2022-11-13T05:03:20.000Z,1.03
2022-11-13T05:04:20.000Z,1.01
2022-11-13T05:05:20.000Z,1.03
2022-11-13T05:06:20.000Z,1.00
2022-11-13T05:07:20.000Z,1.03
2022-11-13T05:08:20.000Z,1.01
2022-11-13T05:09:20.000Z,0.98
2022-11-13T05:10:20.000Z,0.98
2022-11-13T05:11:20.000Z,0.98
2022-11-13T05:12:20.000Z,1.01
2022-11-13T05:13:20.000Z,0.97
2022-11-13T05:14:20.000Z,1.01
2022-11-13T05:15:20.000Z,1.00
2022-11-13T05:16:20.000Z,1.01
2022-11-13T05:17:20.000Z,0.98
2022-11-13T05:18:20.000Z,0.97
2022-11-13T05:19:20.000Z,0.98
2022-11-13T05:20:20.000Z,0.98
2022-11-13T05:21:20.000Z,0.97
2022-11-13T05:22:20.000Z,0.96
2022-11-13T05:23:20.000Z,0.98
2022-11-13T05:24:20.000Z,0.98
2022-11-13T05:25:20.000Z,0.97
2022-11-13T05:26:20.000Z,1.01
2022-11-13T05:27:20.000Z,1.01
2022-11-13T05:28:20.000Z,1.00
2022-11-13T05:29:20.000Z,1.01
2022-11-13T05:30:20.000Z,1.01
2022-11-13T05:31:20.000Z,1.01
2022-11-13T05:32:20.000Z,1.01
2022-11-13T05:33:20.000Z,1.00
2022-11-13T05:34:20.000Z,1.01
2022-11-13T05:35:20.000Z,1.01
2022-11-13T05:36:20.000Z,1.04
2022-11-13T05:37:20.000Z,1.03
2022-11-13T05:38:20.000Z,1.01
2022-11-13T05:39:20.000Z,1.06
2022-11-13T05:40:20.000Z,1.07
2022-11-13T05:41:20.000Z,1.03
2022-11-13T05:42:20.000Z,1.01
2022-11-13T05:43:20.000Z,1.01
2022-11-13T05:44:20.000Z,1.04
2022-11-13T05:45:20.000Z,1.03
2022-11-13T05:46:20.000Z,1.07
2022-11-13T05:47:20.000Z,1.06
2022-11-13T05:48:21.000Z,1.06
2022-11-13T05:49:21.000Z,1.06
2022-11-13T05:50:21.000Z,1.06
2022-11-13T05:51:21.000Z,1.03
2022-11-13T05:52:21.000Z,1.03
2022-11-13T05:53:21.000Z,1.00
2022-11-13T05:54:21.000Z,1.00
2022-11-13T05:55:21.000Z,1.00
2022-11-13T05:56:21.000Z,1.00
2022-11-13T05:57:21.000Z,1.00
2022-11-13T05:58:21.000Z,1.03
2022-11-13T05:59:21.000Z,1.07
2022-11-13T06:00:21.000Z,1.06
2022-11-13T06:01:21.000Z,1.04
2022-11-13T06:02:21.000Z,1.08
2022-11-13T06:03:21.000Z,1.12
2022-11-13T06:04:21.000Z,1.07
2022-11-13T06:05:21.000Z,1.12
2022-11-13T06:06:21.000Z,1.08
2022-11-13T06:07:21.000Z,1.10
2022-11-13T06:08:21.000Z,1.15
2022-11-13T06:09:21.000Z,1.14
2022-11-13T06:10:21.000Z,1.15
2022-11-13T06:11:21.000Z,1.15
2022-11-13T06:12:21.000Z,1.16
2022-11-13T06:13:21.000Z,1.19
2022-11-13T06:14:21.000Z,1.18
2022-11-13T06:15:21.000Z,1.22
2022-11-13T06:16:21.000Z,1.21
2022-11-13T06:17:21.000Z,1.19
2022-11-13T06:18:21.000Z,1.18
2022-11-13T06:19:21.000Z,1.22
2022-11-13T06:20:21.000Z,1.24
2022-11-13T06:21:21.000Z,1.25
2022-11-13T06:22:21.000Z,1.21
2022-11-13T06:23:21.000Z,1.21
2022-11-13T06:24:21.000Z,1.24
2022-11-13T06:25:21.000Z,1.25
2022-11-13T06:26:21.000Z,1.29
2022-11-13T06:27:21.000Z,1.33
2022-11-13T06:28:21.000Z,1.36
2022-11-13T06:29:21.000Z,1.37
2022-11-13T06:30:21.000Z,1.42
2022-11-13T06:31:21.000Z,1.40
2022-11-13T06:32:21.000Z,1.40
2022-11-13T06:33:21.000Z,1.43
2022-11-13T06:34:21.000Z,1.43
2022-11-13T06:35:21.000Z,1.44
2022-11-13T06:36:21.000Z,1.50
2022-11-13T06:37:21.000Z,1.47
2022-11-13T06:38:21.000Z,1.50
2022-11-13T06:39:21.000Z,1.50
2022-11-13T06:40:21.000Z,1.51
2022-11-13T06:41:21.000Z,1.52
2022-11-13T06:42:21.000Z,1.58
2022-11-13T06:43:21.000Z,1.58
2022-11-13T06:44:21.000Z,1.58
2022-11-13T06:45:21.000Z,1.61
2022-11-13T06:46:21.000Z,1.61
2022-11-13T06:47:22.000Z,1.65
2022-11-13T06:48:22.000Z,1.68
2022-11-13T06:49:22.000Z,1.71
2022-11-13T06:50:22.000Z,1.73
2022-11-13T06:51:22.000Z,1.73
2022-11-13T06:52:22.000Z,1.76
2022-11-13T06:53:22.000Z,1.78
2022-11-13T06:54:22.000Z,1.78
2022-11-13T06:55:22.000Z,1.82
2022-11-13T06:55:22.000Z,1.82
2022-11-13T06:56:22.000Z,1.83
2022-11-13T06:56:22.000Z,1.83
2022-11-13T06:57:22.000Z,1.80
2022-11-13T06:57:22.000Z,1.80
2022-11-13T06:58:22.000Z,1.85
2022-11-13T06:58:22.000Z,1.85
2022-11-13T06:59:22.000Z,1.83
2022-11-13T06:59:22.000Z,1.83
2022-11-13T07:00:22.000Z,1.87
2022-11-13T07:01:22.000Z,1.89
2022-11-13T07:02:22.000Z,1.91
2022-11-13T07:03:22.000Z,1.91
2022-11-13T07:04:22.000Z,1.91
2022-11-13T07:05:22.000Z,1.93
2022-11-13T07:06:22.000Z,1.94
2022-11-13T07:07:22.000Z,1.93
2022-11-13T07:08:22.000Z,2.01
2022-11-13T07:09:22.000Z,1.98
2022-11-13T07:10:22.000Z,2.01
2022-11-13T07:11:22.000Z,2.01
2022-11-13T07:12:22.000Z,2.08
2022-11-13T07:13:22.000Z,2.04
2022-11-13T07:14:22.000Z,2.04
2022-11-13T07:15:22.000Z,2.02
2022-11-13T07:16:22.000Z,2.06
2022-11-13T07:17:22.000Z,2.08
2022-11-13T07:18:22.000Z,2.12
2022-11-13T07:19:22.000Z,2.13
2022-11-13T07:20:22.000Z,2.15
2022-11-13T07:21:22.000Z,2.19
2022-11-13T07:22:22.000Z,2.19
2022-11-13T07:23:22.000Z,2.13
2022-11-13T07:24:22.000Z,2.20
2022-11-13T07:25:22.000Z,2.20
2022-11-13T07:26:22.000Z,2.20
2022-11-13T07:27:22.000Z,2.23
2022-11-13T07:28:22.000Z,2.27
2022-11-13T07:29:22.000Z,2.27
2022-11-13T07:30:22.000Z,2.30
2022-11-13T07:31:22.000Z,2.38
2022-11-13T07:32:22.000Z,2.41
2022-11-13T07:33:22.000Z,2.44
2022-11-13T07:34:22.000Z,2.44
2022-11-13T07:35:22.000Z,2.46
2022-11-13T07:36:22.000Z,2.46
2022-11-13T07:37:22.000Z,2.46
2022-11-13T07:38:22.000Z,2.51
2022-11-13T07:39:22.000Z,2.52
2022-11-13T07:40:22.000Z,2.52
2022-11-13T07:41:22.000Z,2.56
2022-11-13T07:42:22.000Z,2.58
2022-11-13T07:43:22.000Z,2.63
2022-11-13T07:44:22.000Z,2.61
2022-11-13T07:45:22.000Z,2.61
2022-11-13T07:46:22.000Z,2.64
2022-11-13T07:47:22.000Z,2.67
2022-11-13T07:48:22.000Z,2.74
2022-11-13T07:49:22.000Z,2.76
2022-11-13T07:50:22.000Z,2.77
2022-11-13T07:51:23.000Z,2.81
2022-11-13T07:52:23.000Z,2.81
2022-11-13T07:53:23.000Z,2.82
2022-11-13T07:54:23.000Z,2.84
2022-11-13T07:55:23.000Z,2.81
2022-11-13T07:56:23.000Z,2.82
2022-11-13T07:57:23.000Z,2.77
2022-11-13T07:58:23.000Z,2.74
2022-11-13T07:59:23.000Z,2.74
2022-11-13T08:00:23.000Z,2.74
2022-11-13T08:01:23.000Z,2.76
2022-11-13T08:02:23.000Z,2.79
2022-11-13T08:03:23.000Z,2.79
2022-11-13T08:04:23.000Z,2.87
2022-11-13T08:05:23.000Z,2.84
2022-11-13T08:06:23.000Z,2.87
2022-11-13T08:07:23.000Z,2.88
2022-11-13T08:08:23.000Z,2.91
2022-11-13T08:09:23.000Z,2.94
2022-11-13T08:10:23.000Z,2.98
2022-11-13T08:11:23.000Z,2.98
2022-11-13T08:12:23.000Z,3.00
2022-11-13T08:13:23.000Z,3.03
2022-11-13T08:14:23.000Z,3.02
2022-11-13T08:15:23.000Z,3.05
2022-11-13T08:16:23.000Z,3.09
2022-11-13T08:17:23.000Z,3.10
2022-11-13T08:18:23.000Z,3.12
2022-11-13T08:19:23.000Z,3.16
2022-11-13T08:20:23.000Z,3.15
2022-11-13T08:21:23.000Z,3.21
2022-11-13T08:22:23.000Z,3.20
2022-11-13T08:23:23.000Z,3.25
2022-11-13T08:24:23.000Z,3.27
2022-11-13T08:25:23.000Z,3.25
2022-11-13T08:26:23.000Z,3.28
2022-11-13T08:27:23.000Z,3.33
2022-11-13T08:28:23.000Z,3.36
2022-11-13T08:29:23.000Z,3.36
2022-11-13T08:30:23.000Z,3.42
2022-11-13T08:31:23.000Z,3.46
2022-11-13T08:32:23.000Z,3.42
2022-11-13T08:33:23.000Z,3.49
2022-11-13T08:34:23.000Z,3.47
2022-11-13T08:35:23.000Z,3.49
2022-11-13T08:36:23.000Z,3.47
2022-11-13T08:37:23.000Z,3.53
2022-11-13T08:38:23.000Z,3.49
2022-11-13T08:39:23.000Z,3.50
2022-11-13T08:40:23.000Z,3.50
2022-11-13T08:41:23.000Z,3.50
2022-11-13T08:42:23.000Z,3.50
2022-11-13T08:43:23.000Z,3.47
2022-11-13T08:44:23.000Z,3.52
2022-11-13T08:45:23.000Z,3.53
2022-11-13T08:46:23.000Z,3.54
2022-11-13T08:47:23.000Z,3.61
2022-11-13T08:48:23.000Z,3.65
2022-11-13T08:49:23.000Z,3.65
2022-11-13T08:50:23.000Z,3.64
2022-11-13T08:51:23.000Z,3.67
2022-11-13T08:52:23.000Z,3.75
2022-11-13T08:53:23.000Z,3.71
2022-11-13T08:54:23.000Z,3.75
2022-11-13T08:55:23.000Z,3.72
2022-11-13T08:56:23.000Z,3.78
2022-11-13T08:57:23.000Z,3.78
2022-11-13T08:58:23.000Z,3.83
2022-11-13T08:59:23.000Z,3.85
2022-11-13T09:00:23.000Z,3.88
2022-11-13T09:01:23.000Z,3.90
2022-11-13T09:02:23.000Z,3.92
2022-11-13T09:03:23.000Z,3.89
2022-11-13T09:04:23.000Z,3.90
2022-11-13T09:05:23.000Z,3.97
2022-11-13T09:06:23.000Z,3.96
2022-11-13T09:07:23.000Z,4.03
2022-11-13T09:08:23.000Z,4.03
2022-11-13T09:09:23.000Z,4.03
2022-11-13T09:10:23.000Z,4.01
2022-11-13T09:11:23.000Z,4.07
2022-11-13T09:12:23.000Z,4.04
2022-11-13T09:13:23.000Z,4.07
2022-11-13T09:14:23.000Z,4.08
2022-11-13T09:15:23.000Z,4.15
2022-11-13T09:16:23.000Z,4.14
2022-11-13T09:17:23.000Z,4.16
2022-11-13T09:18:23.000Z,4.15
2022-11-13T09:19:23.000Z,4.24
2022-11-13T09:20:23.000Z,4.24
2022-11-13T09:20:23.000Z,4.24
2022-11-13T09:21:23.000Z,4.24
2022-11-13T09:21:23.000Z,4.24
2022-11-13T09:22:23.000Z,4.28
2022-11-13T09:22:23.000Z,4.28
2022-11-13T09:23:23.000Z,4.24
2022-11-13T09:23:23.000Z,4.24
2022-11-13T09:24:23.000Z,4.22
2022-11-13T09:24:23.000Z,4.22
2022-11-13T09:25:23.000Z,4.22
2022-11-13T09:26:23.000Z,4.19
2022-11-13T09:27:23.000Z,4.21
2022-11-13T09:28:23.000Z,4.19
2022-11-13T09:29:23.000Z,4.25
2022-11-13T09:30:23.000Z,4.28
2022-11-13T09:31:23.000Z,4.32
2022-11-13T09:32:23.000Z,4.32
2022-11-13T09:33:23.000Z,4.33
2022-11-13T09:34:23.000Z,4.34
2022-11-13T09:35:23.000Z,4.32
2022-11-13T09:36:23.000Z,4.40
2022-11-13T09:37:23.000Z,4.42
2022-11-13T09:38:23.000Z,4.43
2022-11-13T09:39:23.000Z,4.44
2022-11-13T09:40:23.000Z,4.43
2022-11-13T09:41:23.000Z,4.47
2022-11-13T09:42:23.000Z,4.43
2022-11-13T09:43:23.000Z,4.42
2022-11-13T09:44:23.000Z,4.46
2022-11-13T09:45:23.000Z,4.47
2022-11-13T09:46:23.000Z,4.47
2022-11-13T09:47:23.000Z,4.46
2022-11-13T09:48:23.000Z,4.52
2022-11-13T09:49:23.000Z,4.55
2022-11-13T09:50:23.000Z,4.58
2022-11-13T09:51:23.000Z,4.61
2022-11-13T09:52:23.000Z,4.64
2022-11-13T09:53:23.000Z,4.69
2022-11-13T09:54:22.000Z,4.75
2022-11-13T09:55:22.000Z,4.73
2022-11-13T09:56:22.000Z,4.77
2022-11-13T09:57:22.000Z,4.77
2022-11-13T09:58:22.000Z,4.79
2022-11-13T09:59:22.000Z,4.83
2022-11-13T10:00:22.000Z,4.91
2022-11-13T10:01:22.000Z,4.94
2022-11-13T10:02:22.000Z,4.94
2022-11-13T10:03:22.000Z,4.94
2022-11-13T10:04:22.000Z,4.96
2022-11-13T10:05:22.000Z,5.02
2022-11-13T10:06:22.000Z,5.04
2022-11-13T10:07:22.000Z,5.01
2022-11-13T10:08:22.000Z,5.02
2022-11-13T10:09:22.000Z,5.01
2022-11-13T10:10:22.000Z,5.02
2022-11-13T10:11:22.000Z,5.02
2022-11-13T10:12:22.000Z,4.99
2022-11-13T10:13:22.000Z,4.98
2022-11-13T10:14:22.000Z,4.94
2022-11-13T10:15:22.000Z,4.95
2022-11-13T10:16:22.000Z,4.91
2022-11-13T10:17:22.000Z,4.91
2022-11-13T10:18:22.000Z,4.89
2022-11-13T10:19:22.000Z,4.89
2022-11-13T10:20:22.000Z,4.94
2022-11-13T10:21:22.000Z,4.92
2022-11-13T10:22:22.000Z,4.98
2022-11-13T10:23:22.000Z,5.02
2022-11-13T10:24:22.000Z,5.10
2022-11-13T10:25:22.000Z,5.14
2022-11-13T10:26:22.000Z,5.19
2022-11-13T10:27:22.000Z,5.25
2022-11-13T10:28:22.000Z,5.23
2022-11-13T10:29:22.000Z,5.25
2022-11-13T10:30:22.000Z,5.20
2022-11-13T10:31:22.000Z,5.13
2022-11-13T10:32:22.000Z,5.13
2022-11-13T10:33:22.000Z,5.22
2022-11-13T10:34:22.000Z,5.19
2022-11-13T10:35:22.000Z,5.20
2022-11-13T10:36:22.000Z,5.25
2022-11-13T10:37:22.000Z,5.27
2022-11-13T10:38:22.000Z,5.32
2022-11-13T10:39:22.000Z,5.37
2022-11-13T10:40:22.000Z,5.45
2022-11-13T10:41:22.000Z,5.49
2022-11-13T10:42:21.000Z,5.60
2022-11-13T10:43:21.000Z,5.59
2022-11-13T10:44:21.000Z,5.67
2022-11-13T10:45:21.000Z,5.66
2022-11-13T10:46:21.000Z,5.63
2022-11-13T10:47:21.000Z,5.60
2022-11-13T10:48:21.000Z,5.59
2022-11-13T10:49:21.000Z,5.55
2022-11-13T10:50:21.000Z,5.52
2022-11-13T10:51:21.000Z,5.53
2022-11-13T10:52:21.000Z,5.55
2022-11-13T10:53:21.000Z,5.55
2022-11-13T10:54:21.000Z,5.57
2022-11-13T10:55:21.000Z,5.66
2022-11-13T10:56:21.000Z,5.66
2022-11-13T10:57:21.000Z,5.66
2022-11-13T10:58:21.000Z,5.68
2022-11-13T10:59:21.000Z,5.68
2022-11-13T11:00:21.000Z,5.66
2022-11-13T11:01:21.000Z,5.70
2022-11-13T11:02:21.000Z,5.64
2022-11-13T11:03:21.000Z,5.68
2022-11-13T11:04:21.000Z,5.64
2022-11-13T11:05:21.000Z,5.64
2022-11-13T11:06:21.000Z,5.64
2022-11-13T11:07:21.000Z,5.59
2022-11-13T11:08:21.000Z,5.53
2022-11-13T11:09:21.000Z,5.52
2022-11-13T11:10:21.000Z,5.45
2022-11-13T11:11:21.000Z,5.38
2022-11-13T11:12:21.000Z,5.35
2022-11-13T11:13:21.000Z,5.30
2022-11-13T11:14:21.000Z,5.35
2022-11-13T11:15:21.000Z,5.31
2022-11-13T11:16:21.000Z,5.40
2022-11-13T11:17:21.000Z,5.37
2022-11-13T11:18:21.000Z,5.40
2022-11-13T11:19:21.000Z,5.38
2022-11-13T11:20:21.000Z,5.40
2022-11-13T11:21:21.000Z,5.49
2022-11-13T11:22:21.000Z,5.50
2022-11-13T11:23:21.000Z,5.56
2022-11-13T11:24:21.000Z,5.52
2022-11-13T11:25:21.000Z,5.52
2022-11-13T11:26:20.000Z,5.50
2022-11-13T11:27:20.000Z,5.55
2022-11-13T11:28:20.000Z,5.55
2022-11-13T11:29:20.000Z,5.64
2022-11-13T11:30:20.000Z,5.68
2022-11-13T11:31:20.000Z,5.71
2022-11-13T11:32:20.000Z,5.77
2022-11-13T11:33:20.000Z,5.73
2022-11-13T11:34:20.000Z,5.68
2022-11-13T11:35:20.000Z,5.64
2022-11-13T11:36:20.000Z,5.64
2022-11-13T11:37:20.000Z,5.60
2022-11-13T11:38:20.000Z,5.63
2022-11-13T11:39:20.000Z,5.64
2022-11-13T11:40:20.000Z,5.57
2022-11-13T11:41:20.000Z,5.56
2022-11-13T11:42:20.000Z,5.59
2022-11-13T11:43:20.000Z,5.57
2022-11-13T11:44:20.000Z,5.64
2022-11-13T11:45:20.000Z,5.59
2022-11-13T11:46:20.000Z,5.57
2022-11-13T11:47:20.000Z,5.53
2022-11-13T11:48:20.000Z,5.55
2022-11-13T11:49:20.000Z,5.59
2022-11-13T11:50:20.000Z,5.60
2022-11-13T11:51:20.000Z,5.63
2022-11-13T11:52:20.000Z,5.71
2022-11-13T11:53:20.000Z,5.73
2022-11-13T11:54:20.000Z,5.71
2022-11-13T11:55:20.000Z,5.74
2022-11-13T11:56:20.000Z,5.75
2022-11-13T11:57:20.000Z,5.73
2022-11-13T11:58:20.000Z,5.73
2022-11-13T11:59:20.000Z,5.77
2022-11-13T12:00:20.000Z,5.77
2022-11-13T12:01:20.000Z,5.77
2022-11-13T12:02:20.000Z,5.75
2022-11-13T12:03:20.000Z,5.74
2022-11-13T12:04:20.000Z,5.73
2022-11-13T12:05:20.000Z,5.75
2022-11-13T12:06:19.000Z,5.68
2022-11-13T12:07:19.000Z,5.71
2022-11-13T12:08:19.000Z,5.70
2022-11-13T12:09:19.000Z,5.68
2022-11-13T12:10:19.000Z,5.73
2022-11-13T12:11:19.000Z,5.77
2022-11-13T12:12:19.000Z,5.82
2022-11-13T12:13:19.000Z,5.82
2022-11-13T12:14:19.000Z,5.78
2022-11-13T12:15:19.000Z,5.82
2022-11-13T12:16:19.000Z,5.81
2022-11-13T12:17:19.000Z,5.78
2022-11-13T12:18:19.000Z,5.83
2022-11-13T12:19:19.000Z,5.86
2022-11-13T12:20:19.000Z,5.86
2022-11-13T12:21:19.000Z,5.92
2022-11-13T12:22:19.000Z,5.85
2022-11-13T12:23:19.000Z,5.85
2022-11-13T12:24:19.000Z,5.82
2022-11-13T12:25:19.000Z,5.82
2022-11-13T12:26:19.000Z,5.82
2022-11-13T12:27:19.000Z,5.82
2022-11-13T12:28:19.000Z,5.75
2022-11-13T12:29:19.000Z,5.81
2022-11-13T12:30:19.000Z,5.81
2022-11-13T12:31:19.000Z,5.81
2022-11-13T12:32:19.000Z,5.91
2022-11-13T12:33:19.000Z,5.93
2022-11-13T12:34:19.000Z,5.92
2022-11-13T12:35:19.000Z,5.92
2022-11-13T12:36:19.000Z,5.92
2022-11-13T12:37:18.000Z,5.89
2022-11-13T12:38:18.000Z,5.93
2022-11-13T12:39:18.000Z,5.89
2022-11-13T12:40:18.000Z,5.89
2022-11-13T12:41:18.000Z,5.93
2022-11-13T12:42:18.000Z,5.93
2022-11-13T12:43:18.000Z,5.96
2022-11-13T12:44:18.000Z,6.00
2022-11-13T12:45:18.000Z,6.01
2022-11-13T12:45:18.000Z,6.01
2022-11-13T12:46:18.000Z,6.09
2022-11-13T12:46:18.000Z,6.09
2022-11-13T12:47:18.000Z,6.07
2022-11-13T12:47:18.000Z,6.07
2022-11-13T12:48:18.000Z,6.14
2022-11-13T12:48:18.000Z,6.14
2022-11-13T12:49:18.000Z,6.18
2022-11-13T12:49:18.000Z,6.18
2022-11-13T12:50:18.000Z,6.18
2022-11-13T12:51:18.000Z,6.16
2022-11-13T12:52:18.000Z,6.22
2022-11-13T12:53:18.000Z,6.25
2022-11-13T12:54:18.000Z,6.16
2022-11-13T12:55:18.000Z,6.19
2022-11-13T12:56:18.000Z,6.19
2022-11-13T12:57:18.000Z,6.22
2022-11-13T12:58:18.000Z,6.22
2022-11-13T12:59:18.000Z,6.22
2022-11-13T13:00:18.000Z,6.22
2022-11-13T13:01:18.000Z,6.22
2022-11-13T13:02:18.000Z,6.26
2022-11-13T13:03:18.000Z,6.19